Time;durP1;ratioP1;P1;durP2;ratioP2;P2;SDS_P1;SDS_P2;PMS_P1;PMS_P2;Temp;Humidity;BMP_temperature;BMP_pressure;BME280_temperature;BME280_humidity;BME280_pressure;Samples;Min_cycle;Max_cycle;Signal;HPM_P1;HPM_P2
2022/11/13 00:01:33;;;;;;;68.60;10.33;;;;;;;3.97;100.00;100365.53;4990596;28;20241;-80
2022/11/13 00:04:01;;;;;;;38.53;9.80;;;;;;;4.05;100.00;100367.13;4989317;28;20201;-80
2022/11/13 00:06:29;;;;;;;49.40;8.27;;;;;;;4.02;100.00;100358.44;4990385;28;20250;-80
2022/11/13 00:08:58;;;;;;;39.70;8.00;;;;;;;4.05;100.00;100359.25;4998853;28;20689;-80
2022/11/13 00:11:27;;;;;;;43.33;8.30;;;;;;;4.07;100.00;100363.59;5048793;28;20197;-80
2022/11/13 00:13:57;;;;;;;120.60;12.27;;;;;;;3.90;100.00;100365.66;5054918;28;20197;-80
2022/11/13 00:16:25;;;;;;;59.77;9.70;;;;;;;3.97;100.00;100354.19;5049799;28;20193;-80
2022/11/13 00:18:54;;;;;;;66.50;10.07;;;;;;;4.00;100.00;100352.34;5054173;28;20247;-80
2022/11/13 00:21:27;;;;;;;71.03;9.77;;;;;;;3.94;100.00;100359.47;5054556;28;20251;-80
2022/11/13 00:23:56;;;;;;;71.30;9.73;;;;;;;3.93;100.00;100355.09;5055338;28;20193;-80
2022/11/13 00:26:28;;;;;;;112.00;11.67;;;;;;;3.96;100.00;100352.44;5032883;28;20247;-80
2022/11/13 00:29:02;;;;;;;38.13;8.27;;;;;;;3.90;100.00;100353.41;5052693;28;20648;-80
2022/11/13 00:31:31;;;;;;;16.33;7.30;;;;;;;3.94;100.00;100344.59;5052488;28;20192;-80
2022/11/13 00:34:02;;;;;;;31.27;8.30;;;;;;;3.88;100.00;100346.47;5055615;28;20189;-80
2022/11/13 00:36:53;;;;;;;59.47;9.93;;;;;;;3.94;100.00;100349.84;4992460;28;20290;-80
2022/11/13 00:39:22;;;;;;;52.97;9.13;;;;;;;3.89;100.00;100345.59;4958888;28;20262;-80
2022/11/13 00:41:53;;;;;;;46.47;8.43;;;;;;;3.94;100.00;100341.97;4987924;28;20203;-80
2022/11/13 00:44:23;;;;;;;50.70;8.67;;;;;;;3.89;100.00;100335.09;4941180;28;20192;-80
2022/11/13 00:46:52;;;;;;;95.10;10.43;;;;;;;3.84;100.00;100339.53;4932366;29;20730;-81
2022/11/13 00:49:20;;;;;;;67.83;8.20;;;;;;;3.81;100.00;100331.75;4934610;29;20235;-80
2022/11/13 00:51:49;;;;;;;93.53;10.33;;;;;;;3.69;100.00;100335.44;4931067;29;20263;-80
2022/11/13 00:54:18;;;;;;;73.70;9.73;;;;;;;3.64;100.00;100332.88;4934570;29;20209;-80
2022/11/13 00:56:48;;;;;;;35.73;7.70;;;;;;;3.66;100.00;100328.47;4926035;29;20205;-79
2022/11/13 00:59:17;;;;;;;71.90;9.33;;;;;;;3.73;100.00;100324.00;4931264;29;20193;-80
2022/11/13 01:01:52;;;;;;;84.17;9.70;;;;;;;3.78;100.00;100322.19;4992097;28;20249;-80
2022/11/13 01:04:20;;;;;;;72.43;11.40;;;;;;;3.72;100.00;100319.66;4963124;28;20240;-80
2022/11/13 01:06:48;;;;;;;54.77;8.63;;;;;;;3.64;100.00;100324.16;5008279;28;20242;-80
2022/11/13 01:09:18;;;;;;;47.87;8.00;;;;;;;3.82;100.00;100325.63;4990009;28;20202;-80
2022/11/13 01:11:47;;;;;;;42.60;8.90;;;;;;;3.68;100.00;100320.63;5018602;28;20258;-80
2022/11/13 01:14:15;;;;;;;60.73;9.53;;;;;;;3.72;100.00;100322.28;5045791;28;20212;-80
2022/11/13 01:16:44;;;;;;;55.60;8.20;;;;;;;3.64;100.00;100322.41;5047377;28;20220;-80
2022/11/13 01:19:15;;;;;;;44.30;8.13;;;;;;;3.59;100.00;100319.03;5051353;28;20205;-80
2022/11/13 01:21:45;;;;;;;25.80;7.07;;;;;;;3.60;100.00;100320.75;5051235;28;20186;-80
2022/11/13 01:24:14;;;;;;;40.77;8.03;;;;;;;3.57;100.00;100314.69;5046510;28;20201;-80
2022/11/13 01:26:44;;;;;;;67.97;9.50;;;;;;;3.59;100.00;100313.78;5043157;28;20222;-79
2022/11/13 01:29:12;;;;;;;50.57;7.93;;;;;;;3.42;100.00;100303.59;5003459;28;20703;-79
2022/11/13 01:31:41;;;;;;;25.53;7.03;;;;;;;3.50;100.00;100300.84;5010712;28;20230;-79
2022/11/13 01:34:09;;;;;;;53.70;7.93;;;;;;;3.57;100.00;100307.72;5007283;28;20291;-80
2022/11/13 01:36:39;;;;;;;79.20;9.27;;;;;;;3.56;100.00;100300.72;5006885;28;20221;-79
2022/11/13 01:39:11;;;;;;;46.27;7.70;;;;;;;3.58;100.00;100287.63;5008518;28;20206;-80
2022/11/13 01:41:40;;;;;;;44.07;6.93;;;;;;;3.47;100.00;100290.41;5011444;28;20202;-80
2022/11/13 01:44:14;;;;;;;62.73;8.03;;;;;;;3.54;100.00;100299.03;5045658;28;20189;-80
2022/11/13 01:46:44;;;;;;;59.33;8.00;;;;;;;3.46;100.00;100299.16;5047930;28;20668;-80
2022/11/13 01:49:25;;;;;;;25.43;6.40;;;;;;;3.55;100.00;100298.13;5052864;28;20247;-80
2022/11/13 01:52:00;;;;;;;38.07;7.00;;;;;;;3.49;100.00;100293.00;5050133;28;20706;-80
2022/11/13 01:54:33;;;;;;;41.77;7.70;;;;;;;3.49;100.00;100296.50;5052880;28;20250;-80
2022/11/13 01:57:04;;;;;;;36.17;7.33;;;;;;;3.44;100.00;100286.09;5052577;28;20200;-80
2022/11/13 01:59:35;;;;;;;15.63;6.03;;;;;;;3.45;100.00;100277.34;5047893;28;20254;-80
2022/11/13 02:02:04;;;;;;;13.40;5.70;;;;;;;3.42;100.00;100284.38;5048315;28;20250;-80
2022/11/13 02:04:34;;;;;;;8.60;6.20;;;;;;;3.40;100.00;100275.69;5052469;28;20204;-80
2022/11/13 02:07:07;;;;;;;22.03;6.20;;;;;;;3.42;100.00;100277.41;5052203;28;20224;-80
2022/11/13 02:09:38;;;;;;;39.60;7.77;;;;;;;3.12;100.00;100275.28;5052951;28;20668;-80
2022/11/13 02:12:11;;;;;;;22.53;6.70;;;;;;;3.25;100.00;100276.81;5052624;28;20193;-80
2022/11/13 02:14:42;;;;;;;22.67;6.77;;;;;;;3.22;100.00;100274.25;5049001;28;20197;-80
2022/11/13 02:17:15;;;;;;;16.80;7.00;;;;;;;3.32;100.00;100278.44;5052659;28;20204;-80
2022/11/13 02:19:48;;;;;;;28.57;7.77;;;;;;;3.34;100.00;100270.56;5052471;28;20201;-80
2022/11/13 02:22:26;;;;;;;29.17;7.27;;;;;;;3.30;100.00;100272.38;5051454;28;20373;-80
2022/11/13 02:24:58;;;;;;;17.70;6.47;;;;;;;3.27;100.00;100274.16;5052715;28;20247;-80
2022/11/13 02:27:33;;;;;;;20.10;6.93;;;;;;;3.19;100.00;100276.06;5011018;28;20222;-80
2022/11/13 02:30:15;;;;;;;32.97;7.63;;;;;;;3.11;100.00;100269.19;5009639;28;20281;-80
2022/11/13 02:32:50;;;;;;;19.53;6.27;;;;;;;3.16;100.00;100266.47;5010889;28;20194;-79
2022/11/13 02:35:27;;;;;;;7.87;6.17;;;;;;;3.11;100.00;100263.94;5011194;28;20202;-80
2022/11/13 02:37:56;;;;;;;27.90;6.93;;;;;;;3.12;100.00;100265.69;5006518;28;20202;-80
2022/11/13 02:40:28;;;;;;;26.37;6.93;;;;;;;2.93;100.00;100258.13;5008063;28;20223;-80
2022/11/13 02:42:58;;;;;;;13.53;6.40;;;;;;;2.90;100.00;100255.56;5010898;28;20250;-80
2022/11/13 02:45:27;;;;;;;28.63;7.37;;;;;;;2.75;100.00;100260.13;5019087;28;20197;-80
2022/11/13 02:47:59;;;;;;;22.27;7.07;;;;;;;2.57;100.00;100256.03;5050673;28;20255;-80
2022/11/13 02:50:28;;;;;;;16.03;6.93;;;;;;;2.57;100.00;100252.53;5054031;28;20203;-79
2022/11/13 02:52:57;;;;;;;13.87;6.63;;;;;;;2.69;100.00;100252.34;5053013;28;20225;-80
2022/11/13 02:55:27;;;;;;;12.77;6.63;;;;;;;2.79;100.00;100245.25;5058239;28;20225;-80
2022/11/13 02:57:55;;;;;;;11.33;6.23;;;;;;;2.91;100.00;100245.06;5062725;28;20197;-80
2022/11/13 03:00:24;;;;;;;20.63;6.93;;;;;;;2.74;100.00;100245.31;5061543;28;20192;-80
2022/11/13 03:02:52;;;;;;;34.63;8.20;;;;;;;2.73;100.00;100242.72;5054804;28;20193;-80
2022/11/13 03:05:21;;;;;;;23.83;6.73;;;;;;;2.88;100.00;100243.34;5053909;28;20204;-80
2022/11/13 03:07:49;;;;;;;37.67;7.53;;;;;;;2.80;100.00;100239.16;5053672;28;20256;-80
2022/11/13 03:10:18;;;;;;;37.13;7.67;;;;;;;2.87;100.00;100240.75;5051169;28;20196;-80
2022/11/13 03:12:48;;;;;;;31.50;7.43;;;;;;;2.90;100.00;100237.25;5054421;28;20233;-79
2022/11/13 03:15:17;;;;;;;40.93;8.37;;;;;;;2.78;100.00;100233.06;5054410;28;20258;-80
2022/11/13 03:17:45;;;;;;;25.57;7.30;;;;;;;2.78;100.00;100240.91;5051123;28;20189;-80
2022/11/13 03:20:14;;;;;;;36.30;7.57;;;;;;;2.70;100.00;100237.53;5052554;28;20193;-80
2022/11/13 03:22:49;;;;;;;17.63;6.87;;;;;;;2.68;100.00;100240.16;5055574;28;20323;-80
2022/11/13 03:25:17;;;;;;;43.27;7.43;;;;;;;2.83;100.00;100233.88;5055351;28;20219;-80
2022/11/13 03:27:48;;;;;;;32.67;7.00;;;;;;;2.90;100.00;100237.25;5037396;28;20227;-80
2022/11/13 03:30:17;;;;;;;43.00;7.73;;;;;;;2.77;100.00;100234.81;5056631;28;20209;-80
2022/11/13 03:32:45;;;;;;;19.13;5.97;;;;;;;2.77;100.00;100236.56;5048992;28;20193;-80
2022/11/13 03:35:14;;;;;;;44.00;7.60;;;;;;;2.81;100.00;100236.50;5055027;28;20223;-80
2022/11/13 03:37:42;;;;;;;55.20;8.03;;;;;;;2.86;100.00;100239.91;4986022;28;20201;-80
2022/11/13 03:40:11;;;;;;;73.57;8.57;;;;;;;2.93;100.00;100239.81;5053213;28;20229;-80
2022/11/13 03:42:40;;;;;;;29.53;7.47;;;;;;;2.76;100.00;100237.44;5053081;28;20189;-79
2022/11/13 03:45:13;;;;;;;44.47;7.43;;;;;;;2.64;100.00;100232.41;5051951;28;20203;-80
2022/11/13 03:47:41;;;;;;;15.27;6.33;;;;;;;2.73;100.00;100240.97;4988363;28;20231;-80
2022/11/13 03:50:10;;;;;;;8.03;5.90;;;;;;;2.88;100.00;100242.47;4989719;28;20202;-80
2022/11/13 03:52:38;;;;;;;6.40;5.60;;;;;;;2.74;100.00;100240.09;4987400;28;20277;-80
2022/11/13 03:55:08;;;;;;;5.60;5.00;;;;;;;2.85;100.00;100235.56;4984920;28;20199;-80
2022/11/13 03:57:36;;;;;;;6.17;5.57;;;;;;;2.67;100.00;100238.44;4942816;28;20216;-80
2022/11/13 04:00:06;;;;;;;5.73;5.13;;;;;;;2.72;100.00;100239.25;4984750;28;20261;-80
2022/11/13 04:02:38;;;;;;;6.87;5.27;;;;;;;2.87;100.00;100235.53;4990361;28;20230;-79
2022/11/13 04:05:08;;;;;;;20.33;6.30;;;;;;;2.89;100.00;100238.97;4972388;28;20197;-79
2022/11/13 04:07:36;;;;;;;38.27;6.80;;;;;;;2.88;100.00;100239.88;5054615;28;20672;-80
2022/11/13 04:10:06;;;;;;;51.37;7.63;;;;;;;2.87;100.00;100235.53;5048803;28;20201;-79
2022/11/13 04:12:35;;;;;;;58.97;8.00;;;;;;;2.75;100.00;100236.59;5050506;28;20247;-80
2022/11/13 04:15:07;;;;;;;49.47;7.70;;;;;;;2.72;100.00;100234.03;5047981;28;20276;-80
2022/11/13 04:17:38;;;;;;;56.13;8.63;;;;;;;2.72;100.00;100230.53;5020269;28;20197;-80
2022/11/13 04:20:08;;;;;;;33.63;7.27;;;;;;;2.75;100.00;100228.75;5056825;28;20201;-80
2022/11/13 04:22:37;;;;;;;59.53;9.10;;;;;;;2.72;100.00;100231.41;5047593;28;20246;-80
2022/11/13 04:25:06;;;;;;;33.93;6.90;;;;;;;2.81;100.00;100222.56;5050760;28;20204;-80
2022/11/13 04:27:35;;;;;;;23.07;5.37;;;;;;;2.92;100.00;100217.16;5046117;28;20221;-80
2022/11/13 04:30:05;;;;;;;32.40;6.40;;;;;;;2.73;100.00;100212.22;5050205;28;20228;-80
2022/11/13 04:32:35;;;;;;;25.93;5.73;;;;;;;2.75;100.00;100209.56;5055538;28;20201;-80
2022/11/13 04:35:06;;;;;;;25.40;6.10;;;;;;;2.82;100.00;100208.59;5056418;28;20200;-80
2022/11/13 04:37:35;;;;;;;22.60;6.40;;;;;;;2.82;100.00;100206.84;5052505;28;20384;-80
2022/11/13 04:40:04;;;;;;;25.87;5.80;;;;;;;2.84;100.00;100210.28;5050375;28;20205;-80
2022/11/13 04:42:49;;;;;;;30.90;6.30;;;;;;;2.81;100.00;100207.72;5051585;28;20236;-79
2022/11/13 04:45:19;;;;;;;26.57;6.40;;;;;;;2.77;100.00;100199.94;5052894;28;20189;-80
2022/11/13 04:47:48;;;;;;;42.13;7.63;;;;;;;2.61;100.00;100196.72;5051182;28;20683;-80
2022/11/13 04:50:19;;;;;;;62.97;7.57;;;;;;;2.54;100.00;100190.69;5053556;28;20193;-80
2022/11/13 04:52:48;;;;;;;51.33;7.80;;;;;;;2.68;100.00;100187.00;5049575;28;20279;-80
2022/11/13 04:55:16;;;;;;;44.50;7.37;;;;;;;2.64;100.00;100191.41;5053502;28;20204;-79
2022/11/13 04:57:45;;;;;;;49.00;8.33;;;;;;;2.63;100.00;100184.47;5053836;28;20224;-80
2022/11/13 05:00:16;;;;;;;50.10;7.57;;;;;;;2.53;100.00;100191.59;5051740;28;20307;-79
2022/11/13 05:02:47;;;;;;;73.17;10.20;;;;;;;2.57;100.00;100187.16;5011875;28;20206;-80
2022/11/13 05:05:16;;;;;;;97.87;9.77;;;;;;;2.50;100.00;100186.38;5007564;28;20634;-80
2022/11/13 05:07:46;;;;;;;113.67;10.27;;;;;;;2.51;100.00;100180.28;5008229;28;20221;-80
2022/11/13 05:10:14;;;;;;;37.50;6.90;;;;;;;2.55;100.00;100181.09;5008100;28;20293;-80
2022/11/13 05:12:43;;;;;;;81.60;8.63;;;;;;;2.57;100.00;100169.72;5011049;28;20206;-80
2022/11/13 05:15:12;;;;;;;239.87;14.10;;;;;;;2.56;100.00;100175.84;5006433;28;20205;-80
2022/11/13 05:17:41;;;;;;;159.20;14.43;;;;;;;2.50;100.00;100168.06;5004197;28;20315;-80
2022/11/13 05:20:11;;;;;;;192.70;15.53;;;;;;;2.45;100.00;100171.66;5006662;28;20210;-80
2022/11/13 05:22:41;;;;;;;113.10;10.83;;;;;;;2.42;100.00;100171.72;4963558;28;20240;-80
2022/11/13 05:25:11;;;;;;;189.80;13.83;;;;;;;2.35;100.00;100168.31;5006748;28;20256;-80
2022/11/13 05:27:39;;;;;;;167.20;13.83;;;;;;;2.42;100.00;100169.09;5011235;28;20229;-79
2022/11/13 05:30:12;;;;;;;161.87;11.97;;;;;;;2.38;100.00;100164.78;5006751;28;20256;-79
2022/11/13 05:32:42;;;;;;;114.17;10.73;;;;;;;2.42;100.00;100164.75;5011583;28;20198;-79
2022/11/13 05:35:11;;;;;;;146.83;10.80;;;;;;;2.32;100.00;100170.09;5048028;28;20209;-80
2022/11/13 05:37:39;;;;;;;127.40;11.83;;;;;;;2.36;100.00;100156.97;5047531;28;20189;-79
2022/11/13 05:40:09;;;;;;;91.80;10.03;;;;;;;2.41;100.00;100152.53;5048875;28;20224;-80
2022/11/13 05:42:40;;;;;;;144.63;11.40;;;;;;;2.39;100.00;100151.69;5015773;28;20193;-80
2022/11/13 05:45:10;;;;;;;40.63;7.23;;;;;;;2.44;100.00;100144.66;5051667;28;20197;-80
2022/11/13 05:47:38;;;;;;;123.27;10.33;;;;;;;2.24;100.00;100144.94;5055376;28;20266;-80
2022/11/13 05:50:09;;;;;;;83.60;9.43;;;;;;;2.36;100.00;100133.44;5048160;28;20193;-80
2022/11/13 05:52:37;;;;;;;49.27;7.20;;;;;;;2.38;100.00;100129.06;5021111;28;20252;-80
2022/11/13 05:55:07;;;;;;;59.93;7.13;;;;;;;2.36;100.00;100137.81;5050261;28;20193;-80
2022/11/13 05:57:37;;;;;;;60.13;7.87;;;;;;;2.37;100.00;100126.47;5052570;28;20200;-79
2022/11/13 06:00:09;;;;;;;40.90;6.87;;;;;;;2.37;100.00;100129.94;5051570;28;20193;-80
2022/11/13 06:02:37;;;;;;;76.67;7.80;;;;;;;2.29;100.00;100124.81;5054942;28;20205;-80
2022/11/13 06:05:07;;;;;;;35.57;7.63;;;;;;;2.12;100.00;100113.75;5052399;28;20246;-79
2022/11/13 06:07:36;;;;;;;37.87;6.50;;;;;;;2.18;100.00;100116.28;5050859;28;20215;-80
2022/11/13 06:10:08;;;;;;;26.67;5.83;;;;;;;2.23;100.00;100117.09;5051485;28;20250;-79
2022/11/13 06:12:37;;;;;;;52.77;8.33;;;;;;;2.23;100.00;100111.88;5048952;28;20197;-79
2022/11/13 06:15:08;;;;;;;76.70;8.47;;;;;;;2.20;100.00;100111.88;5050024;28;20228;-80
2022/11/13 06:17:37;;;;;;;103.10;10.03;;;;;;;2.16;100.00;100105.00;5050723;28;20193;-80
2022/11/13 06:20:06;;;;;;;52.60;8.07;;;;;;;2.17;100.00;100109.31;5052743;28;20204;-80
2022/11/13 06:22:34;;;;;;;68.60;8.57;;;;;;;2.10;100.00;100107.69;5050469;28;20222;-80
2022/11/13 06:25:02;;;;;;;63.70;8.43;;;;;;;2.08;100.00;100108.59;5051807;28;20657;-79
2022/11/13 06:27:31;;;;;;;52.97;6.87;;;;;;;2.04;100.00;100109.53;5056674;28;20196;-80
2022/11/13 06:29:59;;;;;;;74.97;8.37;;;;;;;1.99;100.00;100107.84;5057074;28;20216;-80
2022/11/13 06:32:29;;;;;;;47.23;7.57;;;;;;;2.04;100.00;100117.38;4988446;28;20223;-80
2022/11/13 06:34:57;;;;;;;38.73;6.83;;;;;;;2.04;100.00;100114.75;4994541;28;20234;-79
2022/11/13 06:37:26;;;;;;;93.60;8.57;;;;;;;1.96;100.00;100113.13;4999934;28;20191;-80
2022/11/13 06:39:59;;;;;;;25.83;5.90;;;;;;;1.97;100.00;100104.38;4965592;28;20218;-80
2022/11/13 06:42:28;;;;;;;51.83;7.40;;;;;;;2.00;100.00;100112.16;4992503;28;20191;-80
2022/11/13 06:44:56;;;;;;;84.77;8.77;;;;;;;2.03;100.00;100113.91;4987653;28;20231;-80
2022/11/13 06:47:25;;;;;;;84.53;9.07;;;;;;;2.04;100.00;100109.53;4994847;28;20313;-80
2022/11/13 06:49:57;;;;;;;117.53;10.43;;;;;;;2.11;100.00;100108.53;4928080;28;20243;-80
2022/11/13 06:52:27;;;;;;;122.03;11.17;;;;;;;2.01;100.00;100103.44;4973481;28;20219;-80
2022/11/13 06:54:55;;;;;;;157.70;12.00;;;;;;;2.21;100.00;100110.13;4974107;28;20199;-80
2022/11/13 06:57:23;;;;;;;177.73;13.53;;;;;;;2.21;100.00;100097.06;4943179;28;20199;-80
2022/11/13 06:59:52;;;;;;;123.53;12.73;;;;;;;2.24;100.00;100103.13;4973986;28;20199;-80
2022/11/13 07:02:23;;;;;;;94.07;9.73;;;;;;;2.23;100.00;100104.03;4973303;28;20223;-80
2022/11/13 07:04:51;;;;;;;124.97;12.97;;;;;;;2.26;100.00;100105.72;4971632;28;20200;-80
2022/11/13 07:07:22;;;;;;;118.70;12.90;;;;;;;2.24;100.00;100103.13;4943163;28;20223;-81
2022/11/13 07:09:51;;;;;;;124.23;13.43;;;;;;;2.21;100.00;100103.16;4974791;28;20271;-81
2022/11/13 07:12:20;;;;;;;72.70;9.63;;;;;;;2.25;100.00;100096.16;4970998;28;20188;-80
2022/11/13 07:14:48;;;;;;;60.80;8.73;;;;;;;2.26;100.00;100098.75;5019536;28;20193;-79
2022/11/13 07:17:17;;;;;;;33.80;7.03;;;;;;;2.25;100.00;100093.53;5050067;28;20235;-80
2022/11/13 07:19:45;;;;;;;40.57;7.90;;;;;;;2.17;100.00;100098.00;5055473;28;20213;-80
2022/11/13 07:22:13;;;;;;;59.93;8.10;;;;;;;2.19;100.00;100096.22;5052707;28;20275;-80
2022/11/13 07:24:44;;;;;;;40.43;8.13;;;;;;;2.30;100.00;100091.69;5055693;28;20217;-80
2022/11/13 07:27:12;;;;;;;20.37;6.27;;;;;;;2.46;100.00;100089.72;5053015;28;20267;-80
2022/11/13 07:29:41;;;;;;;49.27;7.83;;;;;;;2.43;100.00;100088.03;5056443;28;20252;-80
2022/11/13 07:32:10;;;;;;;23.20;6.70;;;;;;;2.46;100.00;100081.88;5053212;28;20201;-79
2022/11/13 07:34:38;;;;;;;27.83;7.33;;;;;;;2.44;100.00;100089.75;5049651;28;20193;-79
2022/11/13 07:37:08;;;;;;;18.47;7.33;;;;;;;2.52;100.00;100087.88;5043283;28;20251;-79
2022/11/13 07:39:36;;;;;;;27.73;8.13;;;;;;;2.68;100.00;100087.59;5063377;28;20199;-80
2022/11/13 07:42:06;;;;;;;23.37;8.03;;;;;;;2.56;100.00;100086.06;5055517;28;20247;-80
2022/11/13 07:44:35;;;;;;;47.60;8.77;;;;;;;2.61;100.00;100076.41;5054856;28;20198;-80
2022/11/13 07:47:25;;;;;;;20.57;7.70;;;;;;;2.79;100.00;100085.66;5055088;28;20193;-80
2022/11/13 07:49:53;;;;;;;32.10;8.57;;;;;;;2.48;100.00;100083.56;5054781;28;20290;-80
2022/11/13 07:52:31;;;;;;;15.93;8.23;;;;;;;2.59;100.00;100073.78;5054444;28;20231;-80
2022/11/13 07:54:59;;;;;;;10.40;7.73;;;;;;;2.75;100.00;100079.63;5052342;28;20196;-80
2022/11/13 07:57:29;;;;;;;9.20;7.57;;;;;;;2.97;100.00;100066.16;5052662;28;20639;-80
2022/11/13 07:59:57;;;;;;;8.03;7.10;;;;;;;2.95;100.00;100070.56;5053791;28;20201;-80
2022/11/13 08:02:26;;;;;;;12.77;8.40;;;;;;;2.99;100.00;100078.34;5050167;28;20189;-80
2022/11/13 08:04:54;;;;;;;9.47;7.73;;;;;;;3.16;100.00;100076.25;5051958;28;20193;-80
2022/11/13 08:07:24;;;;;;;9.27;8.00;;;;;;;3.29;100.00;100069.03;5050678;28;20223;-80
2022/11/13 08:09:52;;;;;;;8.77;7.87;;;;;;;3.38;100.00;100066.25;5052507;28;20243;-81
2022/11/13 08:12:21;;;;;;;9.27;7.17;;;;;;;3.62;100.00;100067.47;5050953;28;20193;-81
2022/11/13 08:14:51;;;;;;;8.90;7.63;;;;;;;3.69;100.00;100069.09;5052279;28;20229;-80
2022/11/13 08:17:20;;;;;;;8.97;8.00;;;;;;;3.77;100.00;100062.81;5054516;28;20652;-80
2022/11/13 08:19:49;;;;;;;10.13;8.40;;;;;;;3.87;100.00;100067.84;4991760;28;20334;-80
2022/11/13 08:22:18;;;;;;;8.67;7.37;;;;;;;4.13;100.00;100074.22;4988324;28;20191;-80
2022/11/13 08:24:46;;;;;;;9.37;8.13;;;;;;;4.29;100.00;100063.34;4988479;28;20235;-80
2022/11/13 08:27:15;;;;;;;10.13;8.30;;;;;;;4.36;100.00;100071.94;4993074;28;20191;-80
2022/11/13 08:29:43;;;;;;;9.60;8.60;;;;;;;4.58;100.00;100073.13;4987108;28;20293;-81
2022/11/13 08:32:16;;;;;;;9.93;8.17;;;;;;;4.75;100.00;100061.34;4988797;28;20230;-80
2022/11/13 08:34:45;;;;;;;12.03;8.37;;;;;;;4.99;100.00;100058.06;4993892;28;20665;-81
2022/11/13 08:37:15;;;;;;;9.63;8.63;;;;;;;5.17;100.00;100060.19;5002809;28;20201;-80
2022/11/13 08:39:44;;;;;;;9.57;8.67;;;;;;;5.37;100.00;100051.75;5051902;28;20208;-80
2022/11/13 08:42:14;;;;;;;10.03;9.03;;;;;;;5.58;100.00;100054.69;5054660;28;20208;-80
2022/11/13 08:44:42;;;;;;;10.67;9.50;;;;;;;5.72;100.00;100058.63;5053445;28;20648;-80
2022/11/13 08:47:11;;;;;;;10.53;8.80;;;;;;;5.91;100.00;100047.59;5053891;28;20268;-81
2022/11/13 08:49:41;;;;;;;10.93;8.73;;;;;;;6.21;100.00;100041.38;5052901;28;20699;-80
2022/11/13 08:52:11;;;;;;;8.90;8.00;;;;;;;6.18;100.00;100033.59;5053469;28;20282;-80
2022/11/13 08:54:43;;;;;;;8.70;7.67;;;;;;;6.30;100.00;100035.81;5046532;28;20212;-80
2022/11/13 08:57:12;;;;;;;9.07;8.17;;;;;;;6.38;100.00;100024.19;5052565;28;20197;-80
2022/11/13 08:59:42;;;;;;;8.70;7.67;;;;;;;6.49;100.00;100022.06;5045766;28;20251;-81
2022/11/13 09:02:14;;;;;;;8.30;7.40;;;;;;;6.66;100.00;100013.56;5050364;28;20193;-81
2022/11/13 09:04:44;;;;;;;7.43;6.67;;;;;;;6.79;100.00;100010.47;5053758;28;20244;-80
2022/11/13 09:07:13;;;;;;;7.70;6.90;;;;;;;6.75;100.00;100016.75;5056620;28;20342;-80
2022/11/13 09:09:42;;;;;;;8.93;7.10;;;;;;;6.85;100.00;100012.91;5055017;28;20221;-80
2022/11/13 09:12:10;;;;;;;7.50;6.77;;;;;;;6.94;100.00;100006.44;5051586;28;20197;-80
2022/11/13 09:14:39;;;;;;;7.23;6.53;;;;;;;7.04;100.00;99999.06;4986266;28;20203;-80
2022/11/13 09:17:07;;;;;;;6.87;6.17;;;;;;;7.21;100.00;99991.41;4938419;28;20195;-80
2022/11/13 09:19:36;;;;;;;7.00;6.20;;;;;;;7.31;100.00;99984.03;4988434;28;20206;-81
2022/11/13 09:22:06;;;;;;;6.77;6.03;;;;;;;7.46;100.00;99980.81;4985487;28;20195;-81
2022/11/13 09:24:38;;;;;;;7.47;6.13;;;;;;;7.42;100.00;99971.28;4989582;28;20199;-80
2022/11/13 09:27:08;;;;;;;7.13;5.87;;;;;;;7.64;100.00;99966.09;4992697;28;20203;-80
2022/11/13 09:29:36;;;;;;;7.43;5.87;;;;;;;7.74;100.00;99955.13;4985404;28;20227;-80
2022/11/13 09:32:06;;;;;;;6.83;6.13;;;;;;;7.85;100.00;99949.41;5000528;28;20197;-80
2022/11/13 09:34:35;;;;;;;7.17;6.00;;;;;;;8.14;100.00;99950.84;5053640;28;20223;-80
2022/11/13 09:37:05;;;;;;;7.27;5.70;;;;;;;8.13;100.00;99945.66;5053225;28;20189;-81
2022/11/13 09:39:34;;;;;;;6.53;5.23;;;;;;;8.40;100.00;99944.53;5015349;28;20193;-81
2022/11/13 09:42:14;;;;;;;7.23;5.87;;;;;;;8.69;100.00;99930.06;5048478;28;20235;-80
2022/11/13 09:44:47;;;;;;;6.23;5.63;;;;;;;8.85;100.00;99932.88;5052362;28;20201;-81
2022/11/13 09:47:20;;;;;;;8.23;5.70;;;;;;;8.90;100.00;99920.34;5051027;28;20200;-80
2022/11/13 09:49:54;;;;;;;6.37;5.53;;;;;;;8.84;100.00;99910.88;5053051;28;20228;-80
2022/11/13 09:52:34;;;;;;;6.80;5.90;;;;;;;8.94;100.00;99907.84;5051435;28;20290;-81
2022/11/13 09:55:04;;;;;;;5.53;4.87;;;;;;;9.16;100.00;99905.91;5053124;28;20196;-81
2022/11/13 09:57:41;;;;;;;5.77;5.17;;;;;;;9.27;100.00;99902.81;5032223;28;20200;-80
2022/11/13 10:00:13;;;;;;;6.20;5.60;;;;;;;9.45;100.00;99893.97;5018816;28;20211;-80
2022/11/13 10:02:55;;;;;;;5.90;5.30;;;;;;;9.57;100.00;99890.78;5056568;28;20197;-81
2022/11/13 10:05:31;;;;;;;5.83;5.17;;;;;;;9.84;100.00;99885.03;5059664;28;20247;-81
2022/11/13 10:08:07;;;;;;;7.17;5.20;;;;;;;9.82;100.00;99877.19;5059390;28;20201;-81
2022/11/13 10:10:48;;;;;;;6.60;5.30;;;;;;;9.98;100.00;99861.41;5017251;28;20218;-81
2022/11/13 10:13:28;;;;;;;6.07;5.00;;;;;;;10.06;100.00;99861.03;5012819;28;20253;-81
2022/11/13 10:16:04;;;;;;;5.40;4.90;;;;;;;10.30;100.00;99862.44;5017622;28;20197;-80
2022/11/13 10:18:36;;;;;;;6.00;5.40;;;;;;;10.42;100.00;99853.00;4969678;28;20202;-80
2022/11/13 10:21:15;;;;;;;5.90;5.30;;;;;;;10.64;100.00;99855.41;5015505;28;20206;-81
2022/11/13 10:23:55;;;;;;;7.50;5.00;;;;;;;10.72;100.00;99845.25;5017896;28;20712;-81
2022/11/13 10:26:27;;;;;;;5.13;4.60;;;;;;;10.94;100.00;99843.16;5017822;28;20197;-81
2022/11/13 10:29:01;;;;;;;6.90;5.30;;;;;;;11.20;100.00;99848.84;5042247;28;20192;-81
2022/11/13 10:31:30;;;;;;;5.67;4.87;;;;;;;11.38;100.00;99834.50;5059580;28;20651;-81
2022/11/13 10:33:59;;;;;;;5.67;4.60;;;;;;;11.46;100.00;99817.22;5056349;28;20228;-81
2022/11/13 10:36:36;;;;;;;6.97;4.80;;;;;;;11.64;100.00;99817.13;5064262;28;20255;-81
2022/11/13 10:39:08;;;;;;;5.80;5.07;;;;;;;11.94;100.00;99807.38;5065921;28;20201;-81
2022/11/13 10:41:47;;;;;;;5.57;4.97;;;;;;;12.26;100.00;99801.97;5059319;28;20781;-81
2022/11/13 10:44:39;;;;;;;6.93;4.87;;;;;;;12.51;100.00;99799.50;5060414;28;20221;-81
2022/11/13 10:47:18;;;;;;;5.77;5.17;;;;;;;12.94;100.00;99788.88;5061551;28;20219;-83
2022/11/13 10:50:10;;;;;;;5.80;4.80;;;;;;;13.17;100.00;99787.38;5059268;28;20296;-81
2022/11/13 10:52:48;;;;;;;5.60;4.80;;;;;;;13.20;100.00;99781.03;5054346;28;20286;-81
2022/11/13 10:55:26;;;;;;;7.23;5.17;;;;;;;12.66;100.00;99775.59;5059383;28;20204;-81
2022/11/13 10:57:56;;;;;;;5.00;4.50;;;;;;;13.32;100.00;99778.44;5056394;28;20185;-82
2022/11/13 11:00:30;;;;;;;4.43;4.00;;;;;;;13.46;100.00;99769.53;5058922;28;20250;-81
2022/11/13 11:02:59;;;;;;;5.10;4.27;;;;;;;13.87;100.00;99760.59;5058885;28;20193;-81
2022/11/13 11:05:29;;;;;;;5.27;4.30;;;;;;;14.13;100.00;99757.00;5052793;28;20189;-82
2022/11/13 11:07:59;;;;;;;5.30;4.40;;;;;;;14.08;100.00;99745.78;5059054;28;20224;-82
2022/11/13 11:10:34;;;;;;;5.20;3.90;;;;;;;14.55;100.00;99739.84;5056524;28;20209;-81
2022/11/13 11:13:12;;;;;;;5.93;4.50;;;;;;;14.98;100.00;99735.91;5054397;28;20267;-82
2022/11/13 11:15:47;;;;;;;5.47;3.97;;;;;;;15.09;100.00;99730.63;5054605;28;20200;-82
2022/11/13 11:18:25;;;;;;;4.83;4.30;;;;;;;15.42;100.00;99725.47;5054538;28;20243;-81
2022/11/13 11:20:57;;;;;;;6.17;4.07;;;;;;;15.64;100.00;99724.75;5012543;28;20244;-81
2022/11/13 11:23:31;;;;;;;4.33;3.93;;;;;;;15.78;100.00;99726.34;5007127;28;20691;-82
2022/11/13 11:26:06;;;;;;;5.10;4.23;;;;;;;15.96;100.00;99718.75;5009350;28;20194;-82
2022/11/13 11:28:41;;;;;;;3.97;3.53;;;;;;;16.09;100.00;99714.16;5007616;28;20251;-82
2022/11/13 11:31:21;;;;;;;4.83;4.07;;;;;;;16.21;100.00;99704.31;5012032;28;20673;-82
2022/11/13 11:33:54;;;;;;;4.77;3.97;;;;;;;15.99;100.00;99694.44;5011040;28;20255;-83
2022/11/13 11:36:30;;;;;;;4.80;4.40;;;;;;;16.05;100.00;99690.47;5008386;28;20238;-82